sensor_id;sensor_type;location;lat;lon;timestamp;P1;durP1;ratioP1;P2;durP2;ratioP2
8656;SDS011;4366;50.764;7.184;2022-11-20T00:01:42;12.03;;;8.70;;
8656;SDS011;4366;50.764;7.184;2022-11-20T00:06:43;11.47;;;8.50;;
8656;SDS011;4366;50.764;7.184;2022-11-20T00:11:45;10.33;;;8.27;;
8656;SDS011;4366;50.764;7.184;2022-11-20T00:16:46;9.70;;;7.90;;
8656;SDS011;4366;50.764;7.184;2022-11-20T00:21:48;12.47;;;8.43;;
8656;SDS011;4366;50.764;7.184;2022-11-20T00:26:52;10.77;;;8.47;;
8656;SDS011;4366;50.764;7.184;2022-11-20T00:31:55;10.67;;;7.97;;
8656;SDS011;4366;50.764;7.184;2022-11-20T00:36:57;10.87;;;8.37;;
8656;SDS011;4366;50.764;7.184;2022-11-20T00:41:58;11.03;;;8.23;;
8656;SDS011;4366;50.764;7.184;2022-11-20T00:47:00;9.23;;;7.73;;
8656;SDS011;4366;50.764;7.184;2022-11-20T00:52:02;10.87;;;8.07;;
8656;SDS011;4366;50.764;7.184;2022-11-20T00:57:03;11.23;;;7.97;;
8656;SDS011;4366;50.764;7.184;2022-11-20T01:02:05;10.07;;;7.57;;
8656;SDS011;4366;50.764;7.184;2022-11-20T01:07:06;10.50;;;7.80;;
8656;SDS011;4366;50.764;7.184;2022-11-20T01:12:08;10.53;;;7.70;;
8656;SDS011;4366;50.764;7.184;2022-11-20T01:17:10;10.33;;;8.40;;
8656;SDS011;4366;50.764;7.184;2022-11-20T01:22:11;11.00;;;7.70;;
8656;SDS011;4366;50.764;7.184;2022-11-20T01:27:13;10.67;;;8.07;;
8656;SDS011;4366;50.764;7.184;2022-11-20T01:32:15;13.23;;;8.73;;
8656;SDS011;4366;50.764;7.184;2022-11-20T01:37:16;11.57;;;8.33;;
8656;SDS011;4366;50.764;7.184;2022-11-20T01:42:18;11.27;;;8.50;;
8656;SDS011;4366;50.764;7.184;2022-11-20T01:47:41;11.97;;;8.83;;
8656;SDS011;4366;50.764;7.184;2022-11-20T01:52:46;11.83;;;8.80;;
8656;SDS011;4366;50.764;7.184;2022-11-20T01:57:56;10.93;;;8.37;;
8656;SDS011;4366;50.764;7.184;2022-11-20T02:03:04;10.63;;;8.37;;
8656;SDS011;4366;50.764;7.184;2022-11-20T02:08:10;10.90;;;8.23;;
8656;SDS011;4366;50.764;7.184;2022-11-20T02:13:13;12.10;;;8.57;;
8656;SDS011;4366;50.764;7.184;2022-11-20T02:18:34;12.80;;;8.80;;
8656;SDS011;4366;50.764;7.184;2022-11-20T02:23:38;13.20;;;9.20;;
8656;SDS011;4366;50.764;7.184;2022-11-20T02:29:00;10.40;;;8.00;;
8656;SDS011;4366;50.764;7.184;2022-11-20T02:34:03;12.23;;;9.10;;
8656;SDS011;4366;50.764;7.184;2022-11-20T02:39:05;13.87;;;9.33;;
8656;SDS011;4366;50.764;7.184;2022-11-20T02:44:07;13.50;;;9.43;;
8656;SDS011;4366;50.764;7.184;2022-11-20T02:49:08;12.63;;;9.03;;
8656;SDS011;4366;50.764;7.184;2022-11-20T02:54:10;14.73;;;9.93;;
8656;SDS011;4366;50.764;7.184;2022-11-20T02:59:12;11.03;;;8.03;;
8656;SDS011;4366;50.764;7.184;2022-11-20T03:04:14;11.53;;;8.43;;
8656;SDS011;4366;50.764;7.184;2022-11-20T03:09:15;12.47;;;9.00;;
8656;SDS011;4366;50.764;7.184;2022-11-20T03:14:17;13.03;;;9.37;;
8656;SDS011;4366;50.764;7.184;2022-11-20T03:19:19;13.23;;;9.37;;
8656;SDS011;4366;50.764;7.184;2022-11-20T03:24:21;14.10;;;8.80;;
8656;SDS011;4366;50.764;7.184;2022-11-20T03:29:23;13.37;;;9.13;;
8656;SDS011;4366;50.764;7.184;2022-11-20T03:34:24;10.93;;;8.40;;
8656;SDS011;4366;50.764;7.184;2022-11-20T03:39:26;11.87;;;8.60;;
8656;SDS011;4366;50.764;7.184;2022-11-20T03:44:28;13.03;;;8.77;;
8656;SDS011;4366;50.764;7.184;2022-11-20T03:49:30;11.93;;;9.53;;
8656;SDS011;4366;50.764;7.184;2022-11-20T03:54:31;12.47;;;9.30;;
8656;SDS011;4366;50.764;7.184;2022-11-20T03:59:33;13.93;;;9.30;;
8656;SDS011;4366;50.764;7.184;2022-11-20T04:04:35;11.27;;;8.73;;
8656;SDS011;4366;50.764;7.184;2022-11-20T04:09:36;12.40;;;9.17;;
8656;SDS011;4366;50.764;7.184;2022-11-20T04:14:38;12.70;;;9.30;;
8656;SDS011;4366;50.764;7.184;2022-11-20T04:19:39;14.00;;;9.53;;
8656;SDS011;4366;50.764;7.184;2022-11-20T04:24:41;13.37;;;9.27;;
8656;SDS011;4366;50.764;7.184;2022-11-20T04:29:43;14.27;;;9.57;;
8656;SDS011;4366;50.764;7.184;2022-11-20T04:34:44;15.80;;;9.83;;
8656;SDS011;4366;50.764;7.184;2022-11-20T04:39:46;14.20;;;9.93;;
8656;SDS011;4366;50.764;7.184;2022-11-20T04:44:48;13.33;;;9.53;;
8656;SDS011;4366;50.764;7.184;2022-11-20T04:49:50;15.57;;;9.43;;
8656;SDS011;4366;50.764;7.184;2022-11-20T04:54:52;13.43;;;9.87;;
8656;SDS011;4366;50.764;7.184;2022-11-20T04:59:54;12.93;;;8.77;;
8656;SDS011;4366;50.764;7.184;2022-11-20T05:04:56;14.33;;;9.30;;
8656;SDS011;4366;50.764;7.184;2022-11-20T05:09:58;13.40;;;9.30;;
8656;SDS011;4366;50.764;7.184;2022-11-20T05:14:59;12.40;;;8.83;;
8656;SDS011;4366;50.764;7.184;2022-11-20T05:20:01;13.40;;;9.20;;
8656;SDS011;4366;50.764;7.184;2022-11-20T05:25:03;13.00;;;8.60;;
8656;SDS011;4366;50.764;7.184;2022-11-20T05:30:05;14.53;;;9.17;;
8656;SDS011;4366;50.764;7.184;2022-11-20T05:35:07;12.90;;;8.70;;
8656;SDS011;4366;50.764;7.184;2022-11-20T05:40:09;14.47;;;9.97;;
8656;SDS011;4366;50.764;7.184;2022-11-20T05:45:11;13.27;;;9.50;;
8656;SDS011;4366;50.764;7.184;2022-11-20T05:50:13;11.73;;;8.87;;
8656;SDS011;4366;50.764;7.184;2022-11-20T05:55:15;12.17;;;9.13;;
8656;SDS011;4366;50.764;7.184;2022-11-20T06:00:17;12.67;;;9.23;;
8656;SDS011;4366;50.764;7.184;2022-11-20T06:05:19;14.13;;;9.03;;
8656;SDS011;4366;50.764;7.184;2022-11-20T06:10:21;12.93;;;9.73;;
8656;SDS011;4366;50.764;7.184;2022-11-20T06:15:22;12.13;;;8.83;;
8656;SDS011;4366;50.764;7.184;2022-11-20T06:20:24;12.67;;;9.33;;
8656;SDS011;4366;50.764;7.184;2022-11-20T06:25:25;14.40;;;9.13;;
8656;SDS011;4366;50.764;7.184;2022-11-20T06:30:29;12.10;;;9.00;;
8656;SDS011;4366;50.764;7.184;2022-11-20T06:35:30;11.40;;;8.70;;
8656;SDS011;4366;50.764;7.184;2022-11-20T06:40:32;11.07;;;8.37;;
8656;SDS011;4366;50.764;7.184;2022-11-20T06:45:33;12.37;;;8.90;;
8656;SDS011;4366;50.764;7.184;2022-11-20T06:50:36;11.70;;;8.73;;
8656;SDS011;4366;50.764;7.184;2022-11-20T06:55:41;11.63;;;8.77;;
8656;SDS011;4366;50.764;7.184;2022-11-20T07:00:45;12.50;;;8.67;;
8656;SDS011;4366;50.764;7.184;2022-11-20T07:05:46;12.13;;;9.27;;
8656;SDS011;4366;50.764;7.184;2022-11-20T07:10:48;11.97;;;8.60;;
8656;SDS011;4366;50.764;7.184;2022-11-20T07:15:50;10.80;;;8.67;;
8656;SDS011;4366;50.764;7.184;2022-11-20T07:20:51;12.60;;;9.53;;
8656;SDS011;4366;50.764;7.184;2022-11-20T07:25:53;16.35;;;11.90;;
8656;SDS011;4366;50.764;7.184;2022-11-20T07:30:55;12.17;;;9.30;;
8656;SDS011;4366;50.764;7.184;2022-11-20T07:35:58;11.67;;;8.60;;
8656;SDS011;4366;50.764;7.184;2022-11-20T07:41:00;12.37;;;9.47;;
8656;SDS011;4366;50.764;7.184;2022-11-20T07:46:05;10.87;;;8.53;;
8656;SDS011;4366;50.764;7.184;2022-11-20T07:51:07;12.67;;;9.13;;
8656;SDS011;4366;50.764;7.184;2022-11-20T07:56:08;11.93;;;8.70;;
8656;SDS011;4366;50.764;7.184;2022-11-20T08:01:10;12.47;;;8.43;;
8656;SDS011;4366;50.764;7.184;2022-11-20T08:06:12;13.80;;;9.67;;
8656;SDS011;4366;50.764;7.184;2022-11-20T08:11:16;12.50;;;9.40;;
8656;SDS011;4366;50.764;7.184;2022-11-20T08:16:36;12.83;;;8.97;;
8656;SDS011;4366;50.764;7.184;2022-11-20T08:21:38;13.83;;;9.77;;
8656;SDS011;4366;50.764;7.184;2022-11-20T08:26:40;13.10;;;9.70;;
8656;SDS011;4366;50.764;7.184;2022-11-20T08:31:42;18.77;;;10.17;;
8656;SDS011;4366;50.764;7.184;2022-11-20T08:36:45;16.40;;;11.43;;
8656;SDS011;4366;50.764;7.184;2022-11-20T08:41:46;17.13;;;10.97;;
8656;SDS011;4366;50.764;7.184;2022-11-20T08:46:48;17.07;;;10.03;;
8656;SDS011;4366;50.764;7.184;2022-11-20T08:51:50;15.07;;;10.57;;
8656;SDS011;4366;50.764;7.184;2022-11-20T08:56:55;20.23;;;10.97;;
8656;SDS011;4366;50.764;7.184;2022-11-20T09:01:56;16.10;;;10.87;;
8656;SDS011;4366;50.764;7.184;2022-11-20T09:06:59;16.70;;;11.40;;
8656;SDS011;4366;50.764;7.184;2022-11-20T09:12:01;16.10;;;10.63;;
8656;SDS011;4366;50.764;7.184;2022-11-20T09:17:03;17.00;;;9.97;;
8656;SDS011;4366;50.764;7.184;2022-11-20T09:22:04;17.03;;;10.00;;
8656;SDS011;4366;50.764;7.184;2022-11-20T09:27:06;15.60;;;10.90;;
8656;SDS011;4366;50.764;7.184;2022-11-20T09:32:08;15.60;;;10.57;;
8656;SDS011;4366;50.764;7.184;2022-11-20T09:37:09;15.37;;;10.30;;
8656;SDS011;4366;50.764;7.184;2022-11-20T09:47:26;14.77;;;9.80;;
8656;SDS011;4366;50.764;7.184;2022-11-20T09:57:43;15.63;;;10.53;;
8656;SDS011;4366;50.764;7.184;2022-11-20T10:03:36;17.10;;;10.70;;
8656;SDS011;4366;50.764;7.184;2022-11-20T10:08:20;16.40;;;10.43;;
8656;SDS011;4366;50.764;7.184;2022-11-20T10:29:32;14.67;;;9.43;;
8656;SDS011;4366;50.764;7.184;2022-11-20T11:01:42;13.90;;;9.83;;
8656;SDS011;4366;50.764;7.184;2022-11-20T11:06:46;14.67;;;9.83;;
8656;SDS011;4366;50.764;7.184;2022-11-20T11:11:49;17.53;;;11.50;;
8656;SDS011;4366;50.764;7.184;2022-11-20T11:16:51;17.23;;;10.40;;
8656;SDS011;4366;50.764;7.184;2022-11-20T11:21:56;17.27;;;10.93;;
8656;SDS011;4366;50.764;7.184;2022-11-20T11:26:59;16.67;;;10.30;;
8656;SDS011;4366;50.764;7.184;2022-11-20T11:32:07;17.90;;;11.37;;
8656;SDS011;4366;50.764;7.184;2022-11-20T11:37:19;15.57;;;10.17;;
8656;SDS011;4366;50.764;7.184;2022-11-20T11:42:25;16.33;;;9.87;;
8656;SDS011;4366;50.764;7.184;2022-11-20T11:47:30;16.37;;;10.60;;
8656;SDS011;4366;50.764;7.184;2022-11-20T11:52:32;14.87;;;10.30;;
8656;SDS011;4366;50.764;7.184;2022-11-20T12:18:57;14.30;;;9.70;;
8656;SDS011;4366;50.764;7.184;2022-11-20T12:24:14;15.90;;;10.10;;
8656;SDS011;4366;50.764;7.184;2022-11-20T12:34:56;13.97;;;9.30;;
8656;SDS011;4366;50.764;7.184;2022-11-20T12:40:28;15.03;;;9.60;;
8656;SDS011;4366;50.764;7.184;2022-11-20T12:51:13;14.33;;;10.33;;
8656;SDS011;4366;50.764;7.184;2022-11-20T13:06:51;15.10;;;9.33;;
8656;SDS011;4366;50.764;7.184;2022-11-20T13:12:10;12.97;;;8.47;;
8656;SDS011;4366;50.764;7.184;2022-11-20T13:27:28;13.70;;;8.50;;
8656;SDS011;4366;50.764;7.184;2022-11-20T13:32:32;10.90;;;8.07;;
8656;SDS011;4366;50.764;7.184;2022-11-20T13:37:34;14.47;;;8.60;;
8656;SDS011;4366;50.764;7.184;2022-11-20T13:42:44;10.80;;;7.30;;
8656;SDS011;4366;50.764;7.184;2022-11-20T13:47:47;11.87;;;8.70;;
8656;SDS011;4366;50.764;7.184;2022-11-20T14:03:40;12.60;;;7.93;;
8656;SDS011;4366;50.764;7.184;2022-11-20T14:09:02;13.83;;;8.83;;
8656;SDS011;4366;50.764;7.184;2022-11-20T14:14:10;12.03;;;8.07;;
8656;SDS011;4366;50.764;7.184;2022-11-20T14:24:23;11.33;;;8.17;;
8656;SDS011;4366;50.764;7.184;2022-11-20T14:29:36;10.93;;;7.93;;
8656;SDS011;4366;50.764;7.184;2022-11-20T14:34:39;12.77;;;8.67;;
8656;SDS011;4366;50.764;7.184;2022-11-20T14:39:51;11.93;;;7.80;;
8656;SDS011;4366;50.764;7.184;2022-11-20T14:44:56;11.13;;;7.67;;
8656;SDS011;4366;50.764;7.184;2022-11-20T14:49:59;14.73;;;8.40;;
8656;SDS011;4366;50.764;7.184;2022-11-20T14:55:13;11.10;;;7.70;;
8656;SDS011;4366;50.764;7.184;2022-11-20T15:05:17;11.33;;;8.33;;
8656;SDS011;4366;50.764;7.184;2022-11-20T15:10:24;11.97;;;8.17;;
8656;SDS011;4366;50.764;7.184;2022-11-20T15:20:32;12.20;;;6.80;;
8656;SDS011;4366;50.764;7.184;2022-11-20T15:25:34;8.20;;;5.87;;
8656;SDS011;4366;50.764;7.184;2022-11-20T15:30:37;7.87;;;5.57;;
8656;SDS011;4366;50.764;7.184;2022-11-20T15:35:39;8.67;;;4.90;;
8656;SDS011;4366;50.764;7.184;2022-11-20T15:40:40;9.17;;;6.07;;
8656;SDS011;4366;50.764;7.184;2022-11-20T15:55:58;6.57;;;4.60;;
8656;SDS011;4366;50.764;7.184;2022-11-20T16:01:00;5.47;;;4.27;;
8656;SDS011;4366;50.764;7.184;2022-11-20T16:06:02;5.63;;;4.80;;
8656;SDS011;4366;50.764;7.184;2022-11-20T16:11:04;8.13;;;4.63;;
8656;SDS011;4366;50.764;7.184;2022-11-20T16:16:07;5.23;;;3.97;;
8656;SDS011;4366;50.764;7.184;2022-11-20T16:21:21;4.33;;;3.90;;
8656;SDS011;4366;50.764;7.184;2022-11-20T16:26:28;4.10;;;3.70;;
8656;SDS011;4366;50.764;7.184;2022-11-20T16:31:30;3.60;;;3.30;;
8656;SDS011;4366;50.764;7.184;2022-11-20T16:36:32;5.10;;;4.20;;
8656;SDS011;4366;50.764;7.184;2022-11-20T16:41:34;3.97;;;3.50;;
8656;SDS011;4366;50.764;7.184;2022-11-20T16:46:37;3.80;;;3.40;;
8656;SDS011;4366;50.764;7.184;2022-11-20T16:51:41;4.83;;;3.80;;
8656;SDS011;4366;50.764;7.184;2022-11-20T16:56:43;5.30;;;4.53;;
8656;SDS011;4366;50.764;7.184;2022-11-20T17:01:48;4.73;;;4.23;;
8656;SDS011;4366;50.764;7.184;2022-11-20T17:06:50;5.47;;;4.30;;
8656;SDS011;4366;50.764;7.184;2022-11-20T17:11:51;6.13;;;4.50;;
8656;SDS011;4366;50.764;7.184;2022-11-20T17:16:53;4.87;;;4.07;;
8656;SDS011;4366;50.764;7.184;2022-11-20T17:21:54;5.10;;;4.17;;
8656;SDS011;4366;50.764;7.184;2022-11-20T17:26:56;8.93;;;4.47;;
8656;SDS011;4366;50.764;7.184;2022-11-20T17:31:58;5.73;;;4.17;;
8656;SDS011;4366;50.764;7.184;2022-11-20T17:36:59;5.83;;;3.90;;
8656;SDS011;4366;50.764;7.184;2022-11-20T17:42:01;4.23;;;3.23;;
8656;SDS011;4366;50.764;7.184;2022-11-20T17:47:22;3.30;;;3.00;;
8656;SDS011;4366;50.764;7.184;2022-11-20T17:52:23;3.75;;;3.13;;
8656;SDS011;4366;50.764;7.184;2022-11-20T17:57:25;2.90;;;2.70;;
8656;SDS011;4366;50.764;7.184;2022-11-20T18:02:45;2.80;;;2.60;;
8656;SDS011;4366;50.764;7.184;2022-11-20T18:07:50;2.93;;;2.73;;
8656;SDS011;4366;50.764;7.184;2022-11-20T18:12:52;3.57;;;2.80;;
8656;SDS011;4366;50.764;7.184;2022-11-20T18:17:54;4.30;;;3.70;;
8656;SDS011;4366;50.764;7.184;2022-11-20T18:22:56;4.43;;;3.80;;
8656;SDS011;4366;50.764;7.184;2022-11-20T18:27:58;3.20;;;2.97;;
8656;SDS011;4366;50.764;7.184;2022-11-20T18:33:00;4.97;;;3.20;;
8656;SDS011;4366;50.764;7.184;2022-11-20T18:38:02;2.77;;;2.57;;
8656;SDS011;4366;50.764;7.184;2022-11-20T18:43:03;2.77;;;2.40;;
8656;SDS011;4366;50.764;7.184;2022-11-20T18:48:23;2.57;;;2.30;;
8656;SDS011;4366;50.764;7.184;2022-11-20T18:53:25;2.20;;;2.10;;
8656;SDS011;4366;50.764;7.184;2022-11-20T18:58:27;2.40;;;2.30;;
8656;SDS011;4366;50.764;7.184;2022-11-20T19:03:29;2.40;;;1.90;;
8656;SDS011;4366;50.764;7.184;2022-11-20T19:08:32;2.40;;;2.00;;
8656;SDS011;4366;50.764;7.184;2022-11-20T19:13:35;3.33;;;2.00;;
8656;SDS011;4366;50.764;7.184;2022-11-20T19:18:37;2.47;;;2.27;;
8656;SDS011;4366;50.764;7.184;2022-11-20T19:23:38;2.57;;;2.37;;
8656;SDS011;4366;50.764;7.184;2022-11-20T19:28:41;3.93;;;2.57;;
8656;SDS011;4366;50.764;7.184;2022-11-20T19:33:43;4.10;;;2.30;;
8656;SDS011;4366;50.764;7.184;2022-11-20T19:38:46;5.70;;;2.97;;
8656;SDS011;4366;50.764;7.184;2022-11-20T19:43:48;2.73;;;2.50;;
8656;SDS011;4366;50.764;7.184;2022-11-20T19:48:50;3.70;;;2.73;;
8656;SDS011;4366;50.764;7.184;2022-11-20T19:53:53;4.27;;;3.13;;
8656;SDS011;4366;50.764;7.184;2022-11-20T19:58:56;6.80;;;3.03;;
8656;SDS011;4366;50.764;7.184;2022-11-20T20:03:58;6.60;;;3.93;;
8656;SDS011;4366;50.764;7.184;2022-11-20T20:09:09;4.87;;;2.73;;
8656;SDS011;4366;50.764;7.184;2022-11-20T20:14:13;6.23;;;3.03;;
8656;SDS011;4366;50.764;7.184;2022-11-20T20:19:15;8.50;;;3.47;;
8656;SDS011;4366;50.764;7.184;2022-11-20T20:24:17;8.07;;;3.00;;
8656;SDS011;4366;50.764;7.184;2022-11-20T20:29:19;7.07;;;3.03;;
8656;SDS011;4366;50.764;7.184;2022-11-20T20:34:23;5.10;;;2.53;;
8656;SDS011;4366;50.764;7.184;2022-11-20T20:39:29;6.33;;;2.90;;
8656;SDS011;4366;50.764;7.184;2022-11-20T20:44:32;4.33;;;2.43;;
8656;SDS011;4366;50.764;7.184;2022-11-20T20:49:52;5.97;;;2.30;;
8656;SDS011;4366;50.764;7.184;2022-11-20T20:54:54;3.80;;;2.20;;
8656;SDS011;4366;50.764;7.184;2022-11-20T20:59:55;5.30;;;2.23;;
8656;SDS011;4366;50.764;7.184;2022-11-20T21:04:57;4.37;;;2.37;;
8656;SDS011;4366;50.764;7.184;2022-11-20T21:10:00;2.47;;;2.00;;
8656;SDS011;4366;50.764;7.184;2022-11-20T21:15:01;4.80;;;2.50;;
8656;SDS011;4366;50.764;7.184;2022-11-20T21:20:03;6.13;;;2.57;;
8656;SDS011;4366;50.764;7.184;2022-11-20T21:25:24;4.33;;;2.80;;
8656;SDS011;4366;50.764;7.184;2022-11-20T21:30:26;5.30;;;2.50;;
8656;SDS011;4366;50.764;7.184;2022-11-20T21:35:28;4.30;;;2.50;;
8656;SDS011;4366;50.764;7.184;2022-11-20T21:40:29;7.20;;;2.60;;
8656;SDS011;4366;50.764;7.184;2022-11-20T21:45:31;3.33;;;1.83;;
8656;SDS011;4366;50.764;7.184;2022-11-20T21:50:33;5.50;;;2.27;;
8656;SDS011;4366;50.764;7.184;2022-11-20T21:55:36;6.33;;;2.50;;
8656;SDS011;4366;50.764;7.184;2022-11-20T22:00:37;8.10;;;2.20;;
8656;SDS011;4366;50.764;7.184;2022-11-20T22:05:40;2.70;;;1.83;;
8656;SDS011;4366;50.764;7.184;2022-11-20T22:10:41;4.13;;;1.93;;
8656;SDS011;4366;50.764;7.184;2022-11-20T22:15:43;5.10;;;2.10;;
8656;SDS011;4366;50.764;7.184;2022-11-20T22:21:04;6.20;;;2.60;;
8656;SDS011;4366;50.764;7.184;2022-11-20T22:26:17;7.63;;;2.40;;
8656;SDS011;4366;50.764;7.184;2022-11-20T22:31:24;5.17;;;2.20;;
8656;SDS011;4366;50.764;7.184;2022-11-20T22:36:28;4.57;;;2.03;;
8656;SDS011;4366;50.764;7.184;2022-11-20T22:41:30;6.63;;;2.53;;
8656;SDS011;4366;50.764;7.184;2022-11-20T22:46:33;4.63;;;2.50;;
8656;SDS011;4366;50.764;7.184;2022-11-20T22:51:37;7.50;;;2.30;;
8656;SDS011;4366;50.764;7.184;2022-11-20T22:56:41;8.50;;;2.37;;
8656;SDS011;4366;50.764;7.184;2022-11-20T23:01:42;7.97;;;3.40;;
8656;SDS011;4366;50.764;7.184;2022-11-20T23:06:44;3.80;;;2.23;;
8656;SDS011;4366;50.764;7.184;2022-11-20T23:11:46;7.17;;;2.70;;
8656;SDS011;4366;50.764;7.184;2022-11-20T23:16:47;9.43;;;3.93;;
8656;SDS011;4366;50.764;7.184;2022-11-20T23:21:50;6.93;;;2.67;;
8656;SDS011;4366;50.764;7.184;2022-11-20T23:26:52;8.63;;;2.73;;
8656;SDS011;4366;50.764;7.184;2022-11-20T23:31:53;7.03;;;2.77;;
8656;SDS011;4366;50.764;7.184;2022-11-20T23:36:55;3.57;;;2.60;;
8656;SDS011;4366;50.764;7.184;2022-11-20T23:41:56;10.37;;;3.73;;
8656;SDS011;4366;50.764;7.184;2022-11-20T23:46:58;9.77;;;2.87;;
8656;SDS011;4366;50.764;7.184;2022-11-20T23:52:00;9.60;;;3.17;;
8656;SDS011;4366;50.764;7.184;2022-11-20T23:57:02;7.13;;;2.70;;
